Time,TemperatureF,DewpointF,PressureIn,WindDirection,WindDirectionDegrees,WindSpeedMPH,WindSpeedGustMPH,Humidity,HourlyPrecipIn,Conditions,Clouds,dailyrainin,SoftwareType,DateUTC
2013-10-21 00:01:00,35.6,34.5,30.10,SSE,151,0.0,0.0,96,0.00,,,0.00,WUHU216DAVISVP2,2013-10-21 04:01:00,
2013-10-21 00:06:00,35.7,34.6,30.10,SSE,150,0.0,0.0,96,0.00,,,0.00,WUHU216DAVISVP2,2013-10-21 04:06:00,
2013-10-21 00:11:00,35.6,34.5,30.10,SSE,150,0.0,0.0,96,0.00,,,0.00,WUHU216DAVISVP2,2013-10-21 04:11:00,
2013-10-21 00:16:00,35.4,34.3,30.10,SSE,150,0.0,0.0,96,0.00,,,0.00,WUHU216DAVISVP2,2013-10-21 04:16:00,
2013-10-21 00:21:00,35.5,34.4,30.10,SSE,151,0.0,0.0,96,0.00,,,0.00,WUHU216DAVISVP2,2013-10-21 04:21:00,
2013-10-21 00:26:00,35.7,34.6,30.10,SSE,150,0.0,0.0,96,0.00,,,0.00,WUHU216DAVISVP2,2013-10-21 04:26:00,
2013-10-21 00:31:00,35.7,34.6,30.10,SSE,150,0.0,0.0,96,0.00,,,0.00,WUHU216DAVISVP2,2013-10-21 04:31:00,
2013-10-21 00:36:00,35.4,34.3,30.10,SSE,150,0.0,0.0,96,0.00,,,0.00,WUHU216DAVISVP2,2013-10-21 04:36:00,
2013-10-21 00:41:00,34.8,33.7,30.10,SSE,151,0.0,0.0,96,0.00,,,0.00,WUHU216DAVISVP2,2013-10-21 04:41:00,
2013-10-21 00:46:00,34.5,33.4,30.10,SSE,151,0.0,0.0,96,0.00,,,0.00,WUHU216DAVISVP2,2013-10-21 04:46:00,
2013-10-21 00:51:00,34.6,33.5,30.10,SSE,151,0.0,0.0,96,0.00,,,0.00,WUHU216DAVISVP2,2013-10-21 04:51:00,
2013-10-21 00:56:00,34.7,33.6,30.09,SSE,151,0.0,0.0,96,0.00,,,0.00,WUHU216DAVISVP2,2013-10-21 04:56:00,
2013-10-21 01:01:00,34.9,33.8,30.09,SSE,151,0.0,0.0,96,0.00,,,0.00,WUHU216DAVISVP2,2013-10-21 05:01:00,
2013-10-21 01:06:00,34.9,33.9,30.09,SSE,150,0.0,0.0,96,0.00,,,0.00,WUHU216DAVISVP2,2013-10-21 05:06:00,
2013-10-21 01:11:00,34.8,33.8,30.09,SSE,151,0.0,0.0,96,0.00,,,0.00,WUHU216DAVISVP2,2013-10-21 05:11:00,
2013-10-21 01:16:00,34.6,33.6,30.09,SSE,150,0.0,0.0,96,0.00,,,0.00,WUHU216DAVISVP2,2013-10-21 05:16:00,
2013-10-21 01:21:00,34.8,33.8,30.09,SSE,151,0.0,0.0,96,0.00,,,0.00,WUHU216DAVISVP2,2013-10-21 05:21:00,
2013-10-21 01:26:00,34.8,33.8,30.09,SSE,151,0.0,0.0,96,0.00,,,0.00,WUHU216DAVISVP2,2013-10-21 05:26:00,
2013-10-21 01:31:00,34.9,33.8,30.10,SSE,151,0.0,0.0,96,0.00,,,0.00,WUHU216DAVISVP2,2013-10-21 05:31:00,
2013-10-21 01:36:00,35.0,33.9,30.10,SSE,151,0.0,0.0,96,0.00,,,0.00,WUHU216DAVISVP2,2013-10-21 05:36:00,
2013-10-21 01:41:00,35.2,34.1,30.10,SSE,151,0.0,0.0,96,0.00,,,0.00,WUHU216DAVISVP2,2013-10-21 05:41:00,
2013-10-21 01:51:00,35.6,34.5,30.10,SSE,150,0.0,0.0,96,0.00,,,0.00,WUHU216DAVISVP2,2013-10-21 05:51:00,
2013-10-21 01:56:00,36.0,34.9,30.10,SSE,150,0.0,0.0,96,0.00,,,0.00,WUHU216DAVISVP2,2013-10-21 05:56:00,
2013-10-21 02:01:00,36.2,35.1,30.09,SSE,150,0.0,0.0,96,0.00,,,0.00,WUHU216DAVISVP2,2013-10-21 06:01:00,
2013-10-21 02:06:00,36.4,35.3,30.10,SSE,150,0.0,0.0,96,0.00,,,0.00,WUHU216DAVISVP2,2013-10-21 06:06:00,
2013-10-21 02:11:00,36.6,35.5,30.10,SSE,150,0.0,0.0,96,0.00,,,0.00,WUHU216DAVISVP2,2013-10-21 06:11:00,
2013-10-21 02:16:00,36.7,35.6,30.10,SSE,150,0.0,0.0,96,0.00,,,0.00,WUHU216DAVISVP2,2013-10-21 06:16:00,
2013-10-21 02:21:00,36.7,35.6,30.10,SSE,150,0.0,0.0,96,0.00,,,0.00,WUHU216DAVISVP2,2013-10-21 06:21:00,
2013-10-21 02:26:00,36.8,35.7,30.10,SSE,151,0.0,0.0,96,0.00,,,0.00,WUHU216DAVISVP2,2013-10-21 06:26:00,
2013-10-21 02:31:00,36.9,35.8,30.10,SSE,151,0.0,0.0,96,0.00,,,0.00,WUHU216DAVISVP2,2013-10-21 06:31:00,
2013-10-21 02:36:00,36.9,35.8,30.10,SSE,150,0.0,0.0,96,0.00,,,0.00,WUHU216DAVISVP2,2013-10-21 06:36:00,
2013-10-21 02:41:00,36.9,35.8,30.10,SSE,150,0.0,0.0,96,0.00,,,0.00,WUHU216DAVISVP2,2013-10-21 06:41:00,
2013-10-21 02:46:00,36.9,35.8,30.10,SSE,151,0.0,0.0,96,0.00,,,0.00,WUHU216DAVISVP2,2013-10-21 06:46:00,
2013-10-21 02:51:00,36.9,35.8,30.10,SSE,151,0.0,0.0,96,0.00,,,0.00,WUHU216DAVISVP2,2013-10-21 06:51:00,
2013-10-21 02:56:00,36.9,35.8,30.10,SSE,150,0.0,0.0,96,0.00,,,0.00,WUHU216DAVISVP2,2013-10-21 06:56:00,
2013-10-21 03:01:00,37.0,35.9,30.10,SSE,150,0.0,0.0,96,0.00,,,0.00,WUHU216DAVISVP2,2013-10-21 07:01:00,
2013-10-21 03:06:00,37.0,35.9,30.10,SSE,150,0.0,0.0,96,0.00,,,0.00,WUHU216DAVISVP2,2013-10-21 07:06:00,
2013-10-21 03:11:00,37.0,36.0,30.10,SSE,151,0.0,0.0,96,0.00,,,0.00,WUHU216DAVISVP2,2013-10-21 07:11:00,
2013-10-21 03:16:00,37.0,36.0,30.09,SSE,150,0.0,0.0,96,0.00,,,0.00,WUHU216DAVISVP2,2013-10-21 07:16:00,
2013-10-21 03:21:00,36.9,35.9,30.09,SSE,151,0.0,0.0,96,0.00,,,0.00,WUHU216DAVISVP2,2013-10-21 07:21:00,
2013-10-21 03:26:00,36.9,35.9,30.09,SSE,151,0.0,0.0,96,0.00,,,0.00,WUHU216DAVISVP2,2013-10-21 07:26:00,
2013-10-21 03:31:00,36.7,35.7,30.09,SE,139,0.0,1.0,96,0.00,,,0.00,WUHU216DAVISVP2,2013-10-21 07:31:00,
2013-10-21 03:36:00,36.5,35.4,30.09,ESE,110,1.0,1.0,96,0.00,,,0.00,WUHU216DAVISVP2,2013-10-21 07:36:00,
2013-10-21 03:41:00,36.4,35.3,30.09,ESE,110,0.0,1.0,96,0.00,,,0.00,WUHU216DAVISVP2,2013-10-21 07:41:00,
2013-10-21 03:46:00,36.4,35.3,30.09,ESE,110,0.0,1.0,96,0.00,,,0.00,WUHU216DAVISVP2,2013-10-21 07:46:00,
2013-10-21 03:51:00,36.5,35.4,30.09,ESE,110,0.0,1.0,96,0.00,,,0.00,WUHU216DAVISVP2,2013-10-21 07:51:00,
2013-10-21 03:56:00,36.5,35.4,30.09,ESE,110,0.0,0.0,96,0.00,,,0.00,WUHU216DAVISVP2,2013-10-21 07:56:00,
2013-10-21 04:01:00,36.6,35.5,30.09,ESE,109,0.0,0.0,96,0.00,,,0.00,WUHU216DAVISVP2,2013-10-21 08:01:00,
2013-10-21 04:06:00,36.6,35.5,30.09,ESE,108,0.0,0.0,96,0.00,,,0.00,WUHU216DAVISVP2,2013-10-21 08:06:00,
2013-10-21 04:11:00,36.5,35.4,30.09,ESE,108,0.0,0.0,96,0.00,,,0.00,WUHU216DAVISVP2,2013-10-21 08:11:00,
2013-10-21 04:16:00,36.5,35.4,30.09,ESE,108,0.0,0.0,96,0.00,,,0.00,WUHU216DAVISVP2,2013-10-21 08:16:00,
2013-10-21 04:21:00,36.5,35.4,30.09,ESE,108,1.0,1.0,96,0.00,,,0.00,WUHU216DAVISVP2,2013-10-21 08:21:00,
2013-10-21 04:26:00,36.3,35.2,30.09,WSW,239,0.0,1.0,96,0.00,,,0.00,WUHU216DAVISVP2,2013-10-21 08:26:00,
2013-10-21 04:31:00,36.2,35.1,30.09,WSW,239,0.0,1.0,96,0.00,,,0.00,WUHU216DAVISVP2,2013-10-21 08:31:00,
2013-10-21 04:36:00,36.1,35.0,30.09,WSW,239,0.0,1.0,96,0.00,,,0.00,WUHU216DAVISVP2,2013-10-21 08:36:00,
2013-10-21 04:41:00,36.1,35.1,30.09,WSW,239,0.0,1.0,96,0.00,,,0.00,WUHU216DAVISVP2,2013-10-21 08:41:00,
2013-10-21 04:46:00,36.1,35.0,30.08,WSW,239,0.0,0.0,96,0.00,,,0.00,WUHU216DAVISVP2,2013-10-21 08:46:00,
2013-10-21 04:51:00,36.1,35.0,30.08,WSW,239,0.0,0.0,96,0.00,,,0.00,WUHU216DAVISVP2,2013-10-21 08:51:00,
2013-10-21 04:56:00,36.1,35.0,30.08,WSW,239,0.0,1.0,96,0.00,,,0.00,WUHU216DAVISVP2,2013-10-21 08:56:00,
2013-10-21 05:01:00,35.9,34.8,30.09,SE,146,0.0,1.0,96,0.00,,,0.00,WUHU216DAVISVP2,2013-10-21 09:01:00,
2013-10-21 05:06:00,35.9,34.8,30.09,SE,146,0.0,1.0,96,0.00,,,0.00,WUHU216DAVISVP2,2013-10-21 09:06:00,
2013-10-21 05:11:00,36.0,35.0,30.09,SE,146,0.0,1.0,96,0.00,,,0.00,WUHU216DAVISVP2,2013-10-21 09:11:00,
2013-10-21 05:16:00,36.0,35.0,30.09,SE,146,0.0,1.0,96,0.00,,,0.00,WUHU216DAVISVP2,2013-10-21 09:16:00,
2013-10-21 05:21:00,36.1,35.0,30.09,SSE,147,0.0,1.0,96,0.00,,,0.00,WUHU216DAVISVP2,2013-10-21 09:21:00,
2013-10-21 05:26:00,36.1,35.0,30.09,SE,146,0.0,0.0,96,0.00,,,0.00,WUHU216DAVISVP2,2013-10-21 09:26:00,
2013-10-21 05:31:00,35.9,34.8,30.09,SE,146,0.0,0.0,96,0.00,,,0.00,WUHU216DAVISVP2,2013-10-21 09:31:00,
2013-10-21 05:36:00,35.9,34.8,30.09,SE,146,0.0,0.0,96,0.00,,,0.00,WUHU216DAVISVP2,2013-10-21 09:36:00,
2013-10-21 05:41:00,35.9,34.8,30.09,SSE,147,0.0,0.0,96,0.00,,,0.00,WUHU216DAVISVP2,2013-10-21 09:41:00,
2013-10-21 05:46:00,35.9,34.8,30.09,SE,146,0.0,1.0,96,0.00,,,0.00,WUHU216DAVISVP2,2013-10-21 09:46:00,
2013-10-21 05:51:00,35.9,34.8,30.10,SSE,147,0.0,1.0,96,0.00,,,0.00,WUHU216DAVISVP2,2013-10-21 09:51:00,
2013-10-21 05:56:00,35.9,34.8,30.10,SE,146,0.0,1.0,96,0.00,,,0.00,WUHU216DAVISVP2,2013-10-21 09:56:00,
2013-10-21 06:01:00,35.8,34.7,30.09,ESE,120,0.0,1.0,96,0.00,,,0.00,WUHU216DAVISVP2,2013-10-21 10:01:00,
2013-10-21 06:06:00,35.6,34.5,30.10,ESE,120,0.0,1.0,96,0.00,,,0.00,WUHU216DAVISVP2,2013-10-21 10:06:00,
2013-10-21 06:11:00,35.5,34.5,30.10,ESE,120,0.0,1.0,96,0.00,,,0.00,WUHU216DAVISVP2,2013-10-21 10:11:00,
2013-10-21 06:16:00,35.5,34.5,30.10,ESE,120,0.0,1.0,96,0.00,,,0.00,WUHU216DAVISVP2,2013-10-21 10:16:00,
2013-10-21 06:21:00,35.5,34.5,30.10,ESE,120,0.0,1.0,96,0.00,,,0.00,WUHU216DAVISVP2,2013-10-21 10:21:00,
2013-10-21 06:26:00,35.6,34.6,30.10,ESE,120,0.0,1.0,96,0.00,,,0.00,WUHU216DAVISVP2,2013-10-21 10:26:00,
2013-10-21 06:31:00,35.5,34.4,30.10,ESE,120,0.0,1.0,96,0.00,,,0.00,WUHU216DAVISVP2,2013-10-21 10:31:00,
2013-10-21 06:36:00,35.5,34.4,30.10,ESE,120,0.0,0.0,96,0.00,,,0.00,WUHU216DAVISVP2,2013-10-21 10:36:00,
2013-10-21 06:41:00,35.5,34.4,30.10,ESE,120,0.0,0.0,96,0.00,,,0.00,WUHU216DAVISVP2,2013-10-21 10:41:00,
2013-10-21 06:46:00,35.5,34.4,30.10,ESE,120,0.0,0.0,96,0.00,,,0.00,WUHU216DAVISVP2,2013-10-21 10:46:00,
2013-10-21 06:51:00,35.4,34.3,30.10,ESE,120,0.0,0.0,96,0.00,,,0.00,WUHU216DAVISVP2,2013-10-21 10:51:00,
2013-10-21 06:56:00,35.3,34.2,30.09,ESE,110,0.0,1.0,96,0.00,,,0.00,WUHU216DAVISVP2,2013-10-21 10:56:00,
2013-10-21 07:01:00,35.2,34.1,30.10,South,186,0.0,1.0,96,0.00,,,0.00,WUHU216DAVISVP2,2013-10-21 11:01:00,
2013-10-21 07:06:00,35.2,34.1,30.10,South,186,0.0,1.0,96,0.00,,,0.00,WUHU216DAVISVP2,2013-10-21 11:06:00,
2013-10-21 07:11:00,35.1,34.0,30.10,South,177,0.0,1.0,96,0.00,,,0.00,WUHU216DAVISVP2,2013-10-21 11:11:00,
2013-10-21 07:16:00,35.0,34.0,30.09,South,178,0.0,1.0,96,0.00,,,0.00,WUHU216DAVISVP2,2013-10-21 11:16:00,
2013-10-21 07:21:00,34.9,33.8,30.10,South,177,0.0,0.0,96,0.00,,,0.00,WUHU216DAVISVP2,2013-10-21 11:21:00,
2013-10-21 07:26:00,35.0,34.0,30.10,South,178,0.0,0.0,96,0.00,,,0.00,WUHU216DAVISVP2,2013-10-21 11:26:00,
2013-10-21 07:31:00,34.9,33.9,30.10,South,177,0.0,0.0,96,0.00,,,0.00,WUHU216DAVISVP2,2013-10-21 11:31:00,
2013-10-21 07:36:00,34.8,33.8,30.10,WSW,242,0.0,1.0,96,0.00,,,0.00,WUHU216DAVISVP2,2013-10-21 11:36:00,
2013-10-21 07:41:00,34.8,33.8,30.10,WSW,242,0.0,1.0,96,0.00,,,0.00,WUHU216DAVISVP2,2013-10-21 11:41:00,
2013-10-21 07:46:00,34.8,33.7,30.10,WSW,242,0.0,1.0,96,0.00,,,0.00,WUHU216DAVISVP2,2013-10-21 11:46:00,
2013-10-21 07:51:00,34.9,33.8,30.10,WSW,242,0.0,1.0,96,0.00,,,0.00,WUHU216DAVISVP2,2013-10-21 11:51:00,
2013-10-21 07:56:00,34.9,33.8,30.10,WSW,241,0.0,1.0,96,0.00,,,0.00,WUHU216DAVISVP2,2013-10-21 11:56:00,
2013-10-21 08:01:00,34.9,33.8,30.11,WSW,241,0.0,1.0,96,0.00,,,0.00,WUHU216DAVISVP2,2013-10-21 12:01:00,
2013-10-21 08:06:00,34.8,33.7,30.11,WSW,242,0.0,1.0,96,0.00,,,0.00,WUHU216DAVISVP2,2013-10-21 12:06:00,
2013-10-21 08:11:00,34.9,33.8,30.11,WSW,242,0.0,0.0,96,0.00,,,0.00,WUHU216DAVISVP2,2013-10-21 12:11:00,
2013-10-21 08:16:00,34.9,33.8,30.11,WSW,242,0.0,1.0,96,0.00,,,0.00,WUHU216DAVISVP2,2013-10-21 12:16:00,
2013-10-21 08:21:00,34.9,33.8,30.11,WSW,242,0.0,1.0,96,0.00,,,0.00,WUHU216DAVISVP2,2013-10-21 12:21:00,
2013-10-21 08:26:00,35.1,34.0,30.11,WSW,242,0.0,1.0,96,0.00,,,0.00,WUHU216DAVISVP2,2013-10-21 12:26:00,
2013-10-21 08:31:00,35.0,33.9,30.11,North,349,0.0,1.0,96,0.00,,,0.00,WUHU216DAVISVP2,2013-10-21 12:31:00,
2013-10-21 08:36:00,35.1,34.0,30.12,North,349,0.0,1.0,96,0.00,,,0.00,WUHU216DAVISVP2,2013-10-21 12:36:00,
2013-10-21 08:41:00,35.2,34.1,30.11,NNE,29,1.0,1.0,96,0.00,,,0.00,WUHU216DAVISVP2,2013-10-21 12:41:00,
2013-10-21 08:46:00,35.3,34.2,30.12,NNE,29,1.0,1.0,96,0.01,,,0.01,WUHU216DAVISVP2,2013-10-21 12:46:00,
2013-10-21 08:51:00,35.4,34.3,30.12,NNE,28,1.0,1.0,96,0.01,,,0.01,WUHU216DAVISVP2,2013-10-21 12:51:00,
2013-10-21 08:56:00,35.5,34.5,30.12,NNE,30,1.0,1.0,96,0.01,,,0.01,WUHU216DAVISVP2,2013-10-21 12:56:00,
2013-10-21 09:01:00,35.7,34.6,30.12,NNE,30,0.0,1.0,96,0.01,,,0.01,WUHU216DAVISVP2,2013-10-21 13:01:00,
2013-10-21 09:06:00,35.9,34.8,30.12,ENE,77,1.0,1.0,96,0.01,,,0.01,WUHU216DAVISVP2,2013-10-21 13:06:00,
2013-10-21 09:11:00,36.0,34.9,30.12,ENE,77,1.0,1.0,96,0.01,,,0.01,WUHU216DAVISVP2,2013-10-21 13:11:00,
2013-10-21 09:16:00,35.9,34.8,30.12,ENE,77,0.0,1.0,96,0.01,,,0.01,WUHU216DAVISVP2,2013-10-21 13:16:00,
2013-10-21 09:21:00,36.3,35.2,30.12,ENE,77,0.0,1.0,96,0.01,,,0.01,WUHU216DAVISVP2,2013-10-21 13:21:00,
2013-10-21 09:26:00,36.6,35.5,30.12,ENE,76,0.0,0.0,96,0.01,,,0.01,WUHU216DAVISVP2,2013-10-21 13:26:00,
2013-10-21 09:31:00,36.9,35.8,30.12,ENE,77,0.0,1.0,96,0.01,,,0.01,WUHU216DAVISVP2,2013-10-21 13:31:00,
2013-10-21 09:36:00,37.2,36.1,30.12,NNW,342,0.0,1.0,96,0.01,,,0.01,WUHU216DAVISVP2,2013-10-21 13:36:00,
2013-10-21 09:41:00,37.9,36.8,30.12,NNW,343,1.0,1.0,96,0.01,,,0.01,WUHU216DAVISVP2,2013-10-21 13:41:00,
2013-10-21 09:46:00,38.8,37.7,30.12,WSW,249,0.0,1.0,96,0.00,,,0.01,WUHU216DAVISVP2,2013-10-21 13:46:00,
2013-10-21 09:51:00,39.8,38.7,30.12,WSW,249,1.0,1.0,96,0.00,,,0.01,WUHU216DAVISVP2,2013-10-21 13:51:00,
2013-10-21 09:56:00,40.6,39.5,30.12,ENE,70,1.0,1.0,96,0.00,,,0.01,WUHU216DAVISVP2,2013-10-21 13:56:00,
2013-10-21 10:01:00,40.9,39.8,30.11,ENE,72,0.0,1.0,96,0.00,,,0.01,WUHU216DAVISVP2,2013-10-21 14:01:00,
2013-10-21 10:06:00,42.4,41.3,30.11,ENE,72,0.0,1.0,96,0.00,,,0.01,WUHU216DAVISVP2,2013-10-21 14:06:00,
2013-10-21 10:11:00,42.9,41.8,30.11,NNW,347,1.8,3.0,96,0.00,,,0.01,WUHU216DAVISVP2,2013-10-21 14:11:00,
2013-10-21 10:16:00,43.0,41.9,30.11,NW,314,0.0,3.0,96,0.00,,,0.01,WUHU216DAVISVP2,2013-10-21 14:16:00,
2013-10-21 10:21:00,44.3,43.2,30.10,East,99,1.0,3.0,96,0.00,,,0.01,WUHU216DAVISVP2,2013-10-21 14:21:00,
2013-10-21 10:26:00,45.2,44.1,30.10,East,99,1.0,3.0,96,0.00,,,0.01,WUHU216DAVISVP2,2013-10-21 14:26:00,
2013-10-21 10:31:00,45.6,44.5,30.10,ENE,65,1.0,2.0,96,0.00,,,0.01,WUHU216DAVISVP2,2013-10-21 14:31:00,
2013-10-21 10:36:00,46.2,45.1,30.09,NNW,329,1.0,2.0,96,0.00,,,0.01,WUHU216DAVISVP2,2013-10-21 14:36:00,
2013-10-21 10:41:00,47.3,46.2,30.09,NNE,16,1.0,1.0,96,0.00,,,0.01,WUHU216DAVISVP2,2013-10-21 14:41:00,
2013-10-21 10:46:00,47.8,46.7,30.09,West,268,1.0,2.0,96,0.00,,,0.01,WUHU216DAVISVP2,2013-10-21 14:46:00,
2013-10-21 10:51:00,48.5,47.4,30.09,West,266,1.0,2.0,96,0.00,,,0.01,WUHU216DAVISVP2,2013-10-21 14:51:00,
2013-10-21 10:56:00,49.7,48.6,30.09,West,266,1.0,2.0,96,0.00,,,0.01,WUHU216DAVISVP2,2013-10-21 14:56:00,
2013-10-21 11:01:00,50.9,49.2,30.09,West,266,1.0,2.0,94,0.00,,,0.01,WUHU216DAVISVP2,2013-10-21 15:01:00,
2013-10-21 11:06:00,52.0,49.1,30.08,WSW,253,1.0,2.0,90,0.00,,,0.01,WUHU216DAVISVP2,2013-10-21 15:06:00,
2013-10-21 11:11:00,53.3,49.2,30.08,WSW,249,1.0,2.0,86,0.00,,,0.01,WUHU216DAVISVP2,2013-10-21 15:11:00,
2013-10-21 11:16:00,54.5,50.7,30.08,SSE,150,0.0,2.0,87,0.00,,,0.01,WUHU216DAVISVP2,2013-10-21 15:16:00,
2013-10-21 11:21:00,55.9,48.1,30.08,West,272,1.3,2.0,75,0.00,,,0.01,WUHU216DAVISVP2,2013-10-21 15:21:00,
2013-10-21 11:26:00,57.3,48.3,30.08,NW,305,1.2,2.0,72,0.00,,,0.01,WUHU216DAVISVP2,2013-10-21 15:26:00,
2013-10-21 11:31:00,58.6,47.7,30.08,WSW,248,2.0,4.0,67,0.00,,,0.01,WUHU216DAVISVP2,2013-10-21 15:31:00,
2013-10-21 11:36:00,59.5,48.1,30.08,South,180,1.6,5.0,66,0.00,,,0.01,WUHU216DAVISVP2,2013-10-21 15:36:00,
2013-10-21 11:41:00,60.5,46.5,30.08,West,271,2.7,5.0,60,0.00,,,0.01,WUHU216DAVISVP2,2013-10-21 15:41:00,
2013-10-21 11:46:00,61.4,46.5,30.08,WSW,245,2.2,5.0,58,0.00,,,0.01,WUHU216DAVISVP2,2013-10-21 15:46:00,
2013-10-21 11:51:00,61.9,45.1,30.08,West,261,1.3,6.0,54,0.00,,,0.01,WUHU216DAVISVP2,2013-10-21 15:51:00,
2013-10-21 11:56:00,62.4,43.5,30.07,WNW,298,6.0,11.0,50,0.00,,,0.01,WUHU216DAVISVP2,2013-10-21 15:56:00,
2013-10-21 12:01:00,62.7,44.8,30.07,SW,218,5.0,11.0,52,0.00,,,0.01,WUHU216DAVISVP2,2013-10-21 16:01:00,
2013-10-21 12:06:00,63.1,42.5,30.07,NW,309,5.0,11.0,47,0.00,,,0.01,WUHU216DAVISVP2,2013-10-21 16:06:00,
2013-10-21 12:11:00,63.2,43.2,30.07,West,260,4.0,11.0,48,0.00,,,0.01,WUHU216DAVISVP2,2013-10-21 16:11:00,
2013-10-21 12:16:00,63.4,43.9,30.07,WNW,297,5.0,9.0,49,0.00,,,0.01,WUHU216DAVISVP2,2013-10-21 16:16:00,
2013-10-21 12:21:00,63.5,41.2,30.07,SW,229,6.0,10.0,44,0.00,,,0.01,WUHU216DAVISVP2,2013-10-21 16:21:00,
2013-10-21 12:26:00,63.6,40.7,30.07,WNW,288,4.2,10.0,43,0.00,,,0.01,WUHU216DAVISVP2,2013-10-21 16:26:00,
2013-10-21 12:31:00,63.9,41.5,30.07,WSW,248,6.0,10.0,44,0.00,,,0.01,WUHU216DAVISVP2,2013-10-21 16:31:00,
2013-10-21 12:36:00,64.0,41.6,30.06,West,266,3.1,10.0,44,0.00,,,0.01,WUHU216DAVISVP2,2013-10-21 16:36:00,
2013-10-21 12:41:00,63.9,41.5,30.06,WNW,294,3.6,9.0,44,0.00,,,0.01,WUHU216DAVISVP2,2013-10-21 16:41:00,
2013-10-21 12:46:00,63.7,40.1,30.06,WNW,297,2.5,9.0,42,0.00,,,0.01,WUHU216DAVISVP2,2013-10-21 16:46:00,
2013-10-21 12:51:00,64.1,41.0,30.05,West,265,4.0,9.0,43,0.00,,,0.01,WUHU216DAVISVP2,2013-10-21 16:51:00,
2013-10-21 12:56:00,64.6,42.2,30.05,SW,233,1.3,9.0,44,0.00,,,0.01,WUHU216DAVISVP2,2013-10-21 16:56:00,
2013-10-21 13:01:00,65.0,41.3,30.05,SW,222,1.1,6.0,42,0.00,,,0.01,WUHU216DAVISVP2,2013-10-21 17:01:00,
2013-10-21 13:06:00,65.4,41.7,30.04,WSW,250,3.0,6.0,42,0.00,,,0.01,WUHU216DAVISVP2,2013-10-21 17:06:00,
2013-10-21 13:11:00,65.6,41.3,30.04,SW,219,6.0,7.0,41,0.00,,,0.01,WUHU216DAVISVP2,2013-10-21 17:11:00,
2013-10-21 13:16:00,65.6,40.6,30.03,WSW,252,4.0,8.0,40,0.00,,,0.01,WUHU216DAVISVP2,2013-10-21 17:16:00,
2013-10-21 13:21:00,65.5,41.8,30.03,West,277,6.0,8.0,42,0.00,,,0.01,WUHU216DAVISVP2,2013-10-21 17:21:00,
2013-10-21 13:26:00,65.6,41.3,30.03,SW,224,5.0,8.0,41,0.00,,,0.01,WUHU216DAVISVP2,2013-10-21 17:26:00,
2013-10-21 13:31:00,66.0,42.9,30.03,NNE,27,1.2,8.0,43,0.00,,,0.01,WUHU216DAVISVP2,2013-10-21 17:31:00,
2013-10-21 13:36:00,66.7,40.9,30.03,WSW,255,1.9,8.0,39,0.00,,,0.01,WUHU216DAVISVP2,2013-10-21 17:36:00,
2013-10-21 13:41:00,67.0,41.9,30.02,NE,46,4.0,7.0,40,0.00,,,0.01,WUHU216DAVISVP2,2013-10-21 17:41:00,
2013-10-21 13:46:00,67.1,39.9,30.02,ESE,119,2.1,6.0,37,0.00,,,0.01,WUHU216DAVISVP2,2013-10-21 17:46:00,
2013-10-21 13:51:00,66.9,41.1,30.02,WNW,287,4.3,10.0,39,0.00,,,0.01,WUHU216DAVISVP2,2013-10-21 17:51:00,
2013-10-21 13:56:00,66.7,40.9,30.01,WNW,288,5.0,10.0,39,0.00,,,0.01,WUHU216DAVISVP2,2013-10-21 17:56:00,
2013-10-21 14:01:00,67.1,39.9,30.01,WSW,241,1.7,10.0,37,0.00,,,0.01,WUHU216DAVISVP2,2013-10-21 18:01:00,
2013-10-21 14:06:00,67.3,40.1,30.01,SE,133,2.3,10.0,37,0.00,,,0.01,WUHU216DAVISVP2,2013-10-21 18:06:00,
2013-10-21 14:11:00,67.3,40.1,30.01,WSW,244,2.3,7.0,37,0.00,,,0.01,WUHU216DAVISVP2,2013-10-21 18:11:00,
2013-10-21 14:16:00,67.3,39.4,30.00,WSW,245,4.0,6.0,36,0.00,,,0.01,WUHU216DAVISVP2,2013-10-21 18:16:00,
2013-10-21 14:21:00,67.3,40.1,30.00,SW,228,1.8,6.0,37,0.00,,,0.01,WUHU216DAVISVP2,2013-10-21 18:21:00,
2013-10-21 14:26:00,67.4,39.5,30.00,West,259,4.0,8.0,36,0.00,,,0.01,WUHU216DAVISVP2,2013-10-21 18:26:00,
2013-10-21 14:31:00,67.4,40.2,29.99,SW,224,2.0,8.0,37,0.00,,,0.01,WUHU216DAVISVP2,2013-10-21 18:31:00,
2013-10-21 14:36:00,67.5,40.3,29.99,WNW,292,3.0,7.0,37,0.00,,,0.01,WUHU216DAVISVP2,2013-10-21 18:36:00,
2013-10-21 14:41:00,67.6,41.1,29.99,West,274,3.0,7.0,38,0.00,,,0.01,WUHU216DAVISVP2,2013-10-21 18:41:00,
2013-10-21 14:46:00,67.9,39.2,29.99,WSW,257,2.2,7.0,35,0.00,,,0.01,WUHU216DAVISVP2,2013-10-21 18:46:00,
2013-10-21 14:51:00,68.1,40.8,29.99,WNW,282,3.1,7.0,37,0.00,,,0.01,WUHU216DAVISVP2,2013-10-21 18:51:00,
2013-10-21 14:56:00,67.7,38.9,29.98,NNE,19,4.1,13.0,35,0.00,,,0.01,WUHU216DAVISVP2,2013-10-21 18:56:00,
2013-10-21 15:01:00,68.0,40.6,29.98,WSW,251,2.8,13.0,37,0.00,,,0.01,WUHU216DAVISVP2,2013-10-21 19:01:00,
2013-10-21 15:06:00,68.3,39.6,29.98,ESE,108,1.4,13.0,35,0.00,,,0.01,WUHU216DAVISVP2,2013-10-21 19:06:00,
2013-10-21 15:11:00,68.6,41.3,29.98,West,269,5.0,13.0,37,0.00,,,0.01,WUHU216DAVISVP2,2013-10-21 19:11:00,
2013-10-21 15:16:00,68.2,40.2,29.98,WSW,245,3.6,8.0,36,0.00,,,0.01,WUHU216DAVISVP2,2013-10-21 19:16:00,
2013-10-21 15:21:00,68.4,41.8,29.97,WNW,298,4.0,8.0,38,0.00,,,0.01,WUHU216DAVISVP2,2013-10-21 19:21:00,
2013-10-21 15:26:00,68.1,40.8,29.97,WNW,298,5.0,8.0,37,0.00,,,0.01,WUHU216DAVISVP2,2013-10-21 19:26:00,
2013-10-21 15:31:00,68.2,39.3,29.97,WNW,284,2.4,8.0,35,0.00,,,0.01,WUHU216DAVISVP2,2013-10-21 19:31:00,
2013-10-21 15:36:00,68.4,39.7,29.96,ESE,120,1.7,8.0,35,0.00,,,0.01,WUHU216DAVISVP2,2013-10-21 19:36:00,
2013-10-21 15:41:00,68.7,38.4,29.96,WSW,254,1.9,7.0,33,0.00,,,0.01,WUHU216DAVISVP2,2013-10-21 19:41:00,
2013-10-21 15:46:00,68.8,39.3,29.96,West,266,5.0,6.0,34,0.00,,,0.01,WUHU216DAVISVP2,2013-10-21 19:46:00,
2013-10-21 15:51:00,68.8,37.7,29.96,WSW,250,4.3,7.0,32,0.00,,,0.01,WUHU216DAVISVP2,2013-10-21 19:51:00,
2013-10-21 15:56:00,69.1,38.0,29.95,SSE,149,2.0,7.0,32,0.00,,,0.01,WUHU216DAVISVP2,2013-10-21 19:56:00,
2013-10-21 16:01:00,69.1,38.8,29.95,WSW,258,3.3,7.0,33,0.00,,,0.01,WUHU216DAVISVP2,2013-10-21 20:01:00,
2013-10-21 16:06:00,69.2,38.9,29.95,WSW,255,2.6,7.0,33,0.00,,,0.01,WUHU216DAVISVP2,2013-10-21 20:06:00,
2013-10-21 16:12:00,69.4,38.9,29.95,SSE,168,1.4,7.0,33,0.00,,,0.01,WUHU216DAVISVP2,2013-10-21 20:12:00,
2013-10-21 16:17:00,69.5,37.3,29.95,WNW,294,3.0,7.0,31,0.00,,,0.01,WUHU216DAVISVP2,2013-10-21 20:17:00,
2013-10-21 16:22:00,69.3,38.0,29.95,WSW,258,2.4,5.0,32,0.00,,,0.01,WUHU216DAVISVP2,2013-10-21 20:22:00,
2013-10-21 16:27:00,69.2,37.9,29.95,West,266,4.0,6.0,32,0.00,,,0.01,WUHU216DAVISVP2,2013-10-21 20:27:00,
2013-10-21 16:32:00,68.9,39.2,29.95,WNW,293,4.0,7.0,34,0.00,,,0.01,WUHU216DAVISVP2,2013-10-21 20:32:00,
2013-10-21 16:37:00,68.5,37.3,29.95,West,271,3.3,8.0,32,0.00,,,0.01,WUHU216DAVISVP2,2013-10-21 20:37:00,
2013-10-21 16:42:00,68.6,37.4,29.95,SW,224,2.4,8.0,32,0.00,,,0.01,WUHU216DAVISVP2,2013-10-21 20:42:00,
2013-10-21 16:47:00,68.9,38.4,29.95,West,269,2.0,7.0,33,0.00,,,0.01,WUHU216DAVISVP2,2013-10-21 20:47:00,
2013-10-21 16:52:00,68.8,39.8,29.95,WSW,244,1.5,6.0,35,0.00,,,0.01,WUHU216DAVISVP2,2013-10-21 20:52:00,
2013-10-21 16:56:00,68.8,39.3,29.95,WSW,250,3.0,6.0,34,0.00,,,0.01,WUHU216DAVISVP2,2013-10-21 20:56:00,
2013-10-21 17:01:00,69.0,40.2,29.95,WNW,293,1.0,6.0,35,0.00,,,0.01,WUHU216DAVISVP2,2013-10-21 21:01:00,
2013-10-21 17:06:00,69.0,39.4,29.95,SE,129,1.0,6.0,34,0.00,,,0.01,WUHU216DAVISVP2,2013-10-21 21:06:00,
2013-10-21 17:12:00,68.9,39.4,29.95,West,274,3.0,6.0,34,0.00,,,0.01,WUHU216DAVISVP2,2013-10-21 21:12:00,
2013-10-21 17:17:00,68.9,39.2,29.95,West,279,1.5,5.0,34,0.00,,,0.01,WUHU216DAVISVP2,2013-10-21 21:17:00,
2013-10-21 17:22:00,68.4,38.9,29.95,WSW,253,6.0,8.0,34,0.00,,,0.01,WUHU216DAVISVP2,2013-10-21 21:22:00,
2013-10-21 17:26:00,68.2,38.6,29.95,West,273,3.0,8.0,34,0.00,,,0.01,WUHU216DAVISVP2,2013-10-21 21:26:00,
2013-10-21 17:31:00,68.2,40.0,29.95,WSW,244,1.1,8.0,36,0.00,,,0.01,WUHU216DAVISVP2,2013-10-21 21:31:00,
2013-10-21 17:37:00,68.2,38.7,29.95,West,272,1.5,8.0,34,0.00,,,0.01,WUHU216DAVISVP2,2013-10-21 21:37:00,
2013-10-21 17:42:00,68.0,40.0,29.95,West,267,3.0,7.0,36,0.00,,,0.01,WUHU216DAVISVP2,2013-10-21 21:42:00,
2013-10-21 17:47:00,67.6,39.5,29.95,SW,224,0.0,7.0,36,0.00,,,0.01,WUHU216DAVISVP2,2013-10-21 21:47:00,
2013-10-21 17:52:00,66.8,41.0,29.95,SW,224,0.0,5.0,39,0.00,,,0.01,WUHU216DAVISVP2,2013-10-21 21:52:00,
2013-10-21 17:57:00,65.7,42.0,29.95,SW,224,0.0,4.0,42,0.00,,,0.01,WUHU216DAVISVP2,2013-10-21 21:57:00,
2013-10-21 18:02:00,64.6,42.8,29.96,SW,224,1.0,2.0,45,0.00,,,0.01,WUHU216DAVISVP2,2013-10-21 22:02:00,
2013-10-21 18:07:00,63.3,42.7,29.95,SW,224,0.0,1.0,47,0.00,,,0.01,WUHU216DAVISVP2,2013-10-21 22:07:00,
2013-10-21 18:12:00,62.3,44.4,29.95,SW,224,0.0,1.0,52,0.00,,,0.01,WUHU216DAVISVP2,2013-10-21 22:12:00,
2013-10-21 18:17:00,61.0,44.2,29.95,SW,224,0.0,1.0,54,0.00,,,0.01,WUHU216DAVISVP2,2013-10-21 22:17:00,
2013-10-21 18:22:00,59.7,44.4,29.95,SW,224,0.0,0.0,57,0.00,,,0.01,WUHU216DAVISVP2,2013-10-21 22:22:00,
2013-10-21 18:27:00,58.6,43.9,29.95,SW,224,0.0,0.0,58,0.00,,,0.01,WUHU216DAVISVP2,2013-10-21 22:27:00,
2013-10-21 18:32:00,58.0,44.8,29.95,SW,224,0.0,0.0,61,0.00,,,0.01,WUHU216DAVISVP2,2013-10-21 22:32:00,
2013-10-21 18:37:00,57.2,44.4,29.95,SW,224,0.0,0.0,62,0.00,,,0.01,WUHU216DAVISVP2,2013-10-21 22:37:00,
2013-10-21 18:42:00,56.2,45.1,29.95,SW,224,0.0,0.0,66,0.00,,,0.01,WUHU216DAVISVP2,2013-10-21 22:42:00,
2013-10-21 18:47:00,54.9,43.7,29.95,SW,224,0.0,0.0,66,0.00,,,0.01,WUHU216DAVISVP2,2013-10-21 22:47:00,
2013-10-21 18:52:00,54.4,43.7,29.95,SW,224,0.0,0.0,67,0.00,,,0.01,WUHU216DAVISVP2,2013-10-21 22:52:00,
2013-10-21 18:57:00,53.5,44.1,29.96,SW,224,0.0,0.0,70,0.00,,,0.01,WUHU216DAVISVP2,2013-10-21 22:57:00,
2013-10-21 19:02:00,52.7,44.0,29.95,SW,224,0.0,0.0,72,0.00,,,0.01,WUHU216DAVISVP2,2013-10-21 23:02:00,
2013-10-21 19:07:00,52.1,43.8,29.96,SW,224,0.0,0.0,73,0.00,,,0.01,WUHU216DAVISVP2,2013-10-21 23:07:00,
2013-10-21 19:12:00,51.9,43.6,29.96,SSW,204,0.0,0.0,73,0.00,,,0.01,WUHU216DAVISVP2,2013-10-21 23:12:00,
2013-10-21 19:17:00,51.4,43.8,29.95,SSW,203,0.0,1.0,75,0.00,,,0.01,WUHU216DAVISVP2,2013-10-21 23:17:00,
2013-10-21 19:22:00,51.0,43.4,29.96,SSW,203,0.0,1.0,75,0.00,,,0.01,WUHU216DAVISVP2,2013-10-21 23:22:00,
2013-10-21 19:27:00,50.3,43.8,29.96,SSW,203,0.0,1.0,78,0.00,,,0.01,WUHU216DAVISVP2,2013-10-21 23:27:00,
2013-10-21 19:32:00,49.7,43.8,29.96,SSW,203,0.0,1.0,80,0.00,,,0.01,WUHU216DAVISVP2,2013-10-21 23:32:00,
2013-10-21 19:37:00,49.5,43.9,29.96,SSE,148,0.0,0.0,81,0.00,,,0.01,WUHU216DAVISVP2,2013-10-21 23:37:00,
2013-10-21 19:42:00,49.4,44.1,29.96,SSE,148,0.0,0.0,82,0.00,,,0.01,WUHU216DAVISVP2,2013-10-21 23:42:00,
2013-10-21 19:47:00,49.3,43.7,29.95,SSE,148,0.0,0.0,81,0.00,,,0.01,WUHU216DAVISVP2,2013-10-21 23:47:00,
2013-10-21 19:52:00,49.0,43.8,29.95,SSE,147,0.0,1.0,82,0.00,,,0.01,WUHU216DAVISVP2,2013-10-21 23:52:00,
2013-10-21 19:57:00,48.7,43.8,29.95,SE,146,0.0,1.0,83,0.00,,,0.01,WUHU216DAVISVP2,2013-10-21 23:57:00,
2013-10-21 20:02:00,48.1,43.2,29.95,SSE,147,0.0,1.0,83,0.00,,,0.01,WUHU216DAVISVP2,2013-10-22 00:02:00,
2013-10-21 20:07:00,47.6,43.0,29.95,SE,146,0.0,1.0,84,0.00,,,0.01,WUHU216DAVISVP2,2013-10-22 00:07:00,
2013-10-21 20:19:00,47.5,42.9,29.95,SE,145,0.0,1.0,84,0.00,,,0.01,WUHU216DAVISVP2,2013-10-22 00:19:00,
2013-10-21 20:24:00,47.2,43.2,29.95,SE,145,0.0,1.0,86,0.00,,,0.01,WUHU216DAVISVP2,2013-10-22 00:24:00,
2013-10-21 20:29:00,47.0,43.0,29.95,SE,146,0.0,1.0,86,0.00,,,0.01,WUHU216DAVISVP2,2013-10-22 00:29:00,
2013-10-21 20:34:00,46.5,42.2,29.95,SE,145,0.0,0.0,85,0.00,,,0.01,WUHU216DAVISVP2,2013-10-22 00:34:00,
2013-10-21 20:39:00,45.9,41.9,29.95,SE,146,0.0,0.0,86,0.00,,,0.01,WUHU216DAVISVP2,2013-10-22 00:39:00,
2013-10-21 20:44:00,45.6,42.2,29.95,SE,145,0.0,0.0,88,0.00,,,0.01,WUHU216DAVISVP2,2013-10-22 00:44:00,
2013-10-21 20:49:00,45.3,42.2,29.95,SE,146,0.0,0.0,89,0.00,,,0.01,WUHU216DAVISVP2,2013-10-22 00:49:00,
2013-10-21 20:54:00,45.3,42.0,29.94,SE,145,0.0,0.0,88,0.00,,,0.01,WUHU216DAVISVP2,2013-10-22 00:54:00,
2013-10-21 20:59:00,45.3,42.0,29.94,SE,146,0.0,0.0,88,0.00,,,0.01,WUHU216DAVISVP2,2013-10-22 00:59:00,
2013-10-21 21:04:00,44.8,41.8,29.95,SE,146,0.0,0.0,89,0.00,,,0.01,WUHU216DAVISVP2,2013-10-22 01:04:00,
2013-10-21 21:09:00,44.8,42.3,29.95,SE,145,0.0,0.0,91,0.00,,,0.01,WUHU216DAVISVP2,2013-10-22 01:09:00,
2013-10-21 21:14:00,44.8,42.0,29.95,SE,145,0.0,1.0,90,0.00,,,0.01,WUHU216DAVISVP2,2013-10-22 01:14:00,
2013-10-21 21:19:00,44.6,41.8,29.95,SE,145,1.0,1.0,90,0.00,,,0.01,WUHU216DAVISVP2,2013-10-22 01:19:00,
2013-10-21 21:24:00,44.7,42.2,29.95,SE,146,0.0,1.0,91,0.00,,,0.01,WUHU216DAVISVP2,2013-10-22 01:24:00,
2013-10-21 21:29:00,44.7,42.5,29.95,SE,146,0.0,1.0,92,0.00,,,0.01,WUHU216DAVISVP2,2013-10-22 01:29:00,
2013-10-21 21:34:00,44.7,42.2,29.94,SE,146,0.0,1.0,91,0.00,,,0.01,WUHU216DAVISVP2,2013-10-22 01:34:00,
2013-10-21 21:39:00,44.6,42.1,29.94,SE,146,0.0,0.0,91,0.00,,,0.01,WUHU216DAVISVP2,2013-10-22 01:39:00,
2013-10-21 21:44:00,44.8,42.6,29.94,SE,146,0.0,0.0,92,0.00,,,0.01,WUHU216DAVISVP2,2013-10-22 01:44:00,
2013-10-21 21:49:00,44.6,42.1,29.94,SE,146,0.0,0.0,91,0.00,,,0.01,WUHU216DAVISVP2,2013-10-22 01:49:00,
2013-10-21 21:54:00,44.3,42.1,29.95,SE,145,0.0,0.0,92,0.00,,,0.01,WUHU216DAVISVP2,2013-10-22 01:54:00,
2013-10-21 21:59:00,44.5,42.6,29.95,SE,145,0.0,0.0,93,0.00,,,0.01,WUHU216DAVISVP2,2013-10-22 01:59:00,
2013-10-21 22:09:00,44.3,42.1,29.95,SE,145,0.0,0.0,92,0.00,,,0.01,WUHU216DAVISVP2,2013-10-22 02:09:00,
2013-10-21 22:20:00,44.3,42.1,29.95,SSE,147,0.0,1.0,92,0.00,,,0.01,WUHU216DAVISVP2,2013-10-22 02:20:00,
2013-10-21 22:28:00,44.4,42.5,29.95,SE,145,0.0,1.0,93,0.00,,,0.01,WUHU216DAVISVP2,2013-10-22 02:28:00,
2013-10-21 22:36:00,44.6,42.7,29.95,SE,146,0.0,0.0,93,0.00,,,0.01,WUHU216DAVISVP2,2013-10-22 02:36:00,
2013-10-21 22:46:00,44.9,43.0,29.95,SE,145,0.0,0.0,93,0.00,,,0.01,WUHU216DAVISVP2,2013-10-22 02:46:00,
2013-10-21 22:57:00,45.1,42.9,29.94,SE,145,0.0,0.0,92,0.00,,,0.01,WUHU216DAVISVP2,2013-10-22 02:57:00,
2013-10-21 23:05:00,45.1,42.9,29.94,SE,145,0.0,0.0,92,0.00,,,0.01,WUHU216DAVISVP2,2013-10-22 03:05:00,
2013-10-21 23:13:00,44.6,42.4,29.94,SE,145,0.0,0.0,92,0.00,,,0.01,WUHU216DAVISVP2,2013-10-22 03:13:00,
2013-10-21 23:24:00,44.0,42.1,29.94,SE,146,0.0,0.0,93,0.00,,,0.01,WUHU216DAVISVP2,2013-10-22 03:24:00,
2013-10-21 23:44:00,43.7,42.0,29.93,SE,145,0.0,0.0,94,0.00,,,0.01,WUHU216DAVISVP2,2013-10-22 03:44:00,
2013-10-21 23:49:00,43.7,42.0,29.93,SE,146,0.0,0.0,94,0.00,,,0.01,WUHU216DAVISVP2,2013-10-22 03:49:00,
2013-10-21 23:54:00,43.6,41.9,29.93,SE,146,0.0,0.0,94,0.00,,,0.01,WUHU216DAVISVP2,2013-10-22 03:54:00,
2013-10-21 23:59:00,43.3,41.6,29.93,SE,146,0.0,0.0,94,0.00,,,0.01,WUHU216DAVISVP2,2013-10-22 03:59:00,